createdAt,value
2022-11-21T00:00:52.226Z,100439.94
2022-11-21T00:03:23.744Z,100436.91
2022-11-21T00:05:54.710Z,100436.78
2022-11-21T00:08:25.994Z,100426.88
2022-11-21T00:10:56.958Z,100422.84
2022-11-21T00:13:27.932Z,100424.59
2022-11-21T00:15:58.785Z,100420.69
2022-11-21T00:18:29.519Z,100419.28
2022-11-21T00:21:00.341Z,100416.25
2022-11-21T00:23:31.315Z,100422.31
2022-11-21T00:26:06.815Z,100411.31
2022-11-21T00:28:38.146Z,100425.03
2022-11-21T00:31:09.663Z,100443.84
2022-11-21T00:33:40.657Z,100457.88
2022-11-21T00:36:12.342Z,100482.84
2022-11-21T00:38:42.483Z,100484.75
2022-11-21T00:41:13.184Z,100480.97
2022-11-21T00:43:44.146Z,100480.06
2022-11-21T00:46:15.114Z,100479.19
2022-11-21T00:48:45.927Z,100485.53
2022-11-21T00:51:16.858Z,100471.44
2022-11-21T00:53:47.587Z,100465.91
2022-11-21T00:56:18.360Z,100461.22
2022-11-21T00:58:49.327Z,100451.03
2022-11-21T01:01:20.350Z,100433.56
2022-11-21T01:03:51.618Z,100440.56
2022-11-21T01:06:22.355Z,100441.25
2022-11-21T01:08:54.358Z,100435.47
2022-11-21T01:11:25.277Z,100431.16
2022-11-21T01:13:56.616Z,100431.75
2022-11-21T01:16:29.734Z,100418.25
2022-11-21T01:19:00.827Z,100415.53
2022-11-21T01:21:33.396Z,100416.47
2022-11-21T01:24:04.819Z,100406.50
2022-11-21T01:26:35.757Z,100411.72
2022-11-21T01:29:07.219Z,100419.38
2022-11-21T01:31:38.211Z,100410.53
2022-11-21T01:34:09.214Z,100408.97
2022-11-21T01:36:40.300Z,100400.38
2022-11-21T01:39:12.799Z,100392.84
2022-11-21T01:41:46.183Z,100400.34
2022-11-21T01:44:47.853Z,100398.66
2022-11-21T01:47:19.273Z,100390.19
2022-11-21T01:49:50.506Z,100396.63
2022-11-21T01:52:26.262Z,100390.94
2022-11-21T01:55:04.262Z,100383.09
2022-11-21T01:57:43.155Z,100387.41
2022-11-21T02:00:20.347Z,100366.75
2022-11-21T02:02:57.671Z,100361.06
2022-11-21T02:05:31.709Z,100347.72
2022-11-21T02:08:22.381Z,100349.53
2022-11-21T02:11:34.741Z,100352.22
2022-11-21T02:14:06.118Z,100346.50
2022-11-21T02:16:37.325Z,100341.66
2022-11-21T02:19:11.232Z,100342.53
2022-11-21T02:21:47.505Z,100345.88
2022-11-21T02:24:21.488Z,100307.25
2022-11-21T02:26:52.831Z,100316.91
2022-11-21T02:29:23.742Z,100322.31
2022-11-21T02:31:55.165Z,100308.34
2022-11-21T02:34:26.535Z,100318.59
2022-11-21T02:36:57.624Z,100309.91
2022-11-21T02:39:32.426Z,100311.38
2022-11-21T02:42:32.475Z,100307.91
2022-11-21T02:45:25.835Z,100311.34
2022-11-21T02:48:03.603Z,100316.38
2022-11-21T02:50:38.167Z,100307.22
2022-11-21T02:53:11.288Z,100316.72
2022-11-21T02:55:42.234Z,100327.13
2022-11-21T02:58:13.986Z,100321.19
2022-11-21T03:00:45.448Z,100337.84
2022-11-21T03:03:16.323Z,100332.84
2022-11-21T03:05:47.289Z,100335.19
2022-11-21T03:08:18.523Z,100336.34
2022-11-21T03:10:49.915Z,100337.00
2022-11-21T03:13:21.399Z,100331.63
2022-11-21T03:15:52.446Z,100317.31
2022-11-21T03:18:23.255Z,100323.31
2022-11-21T03:20:55.733Z,100321.75
2022-11-21T03:23:26.874Z,100319.91
2022-11-21T03:25:57.882Z,100322.91
2022-11-21T03:28:28.765Z,100324.78
2022-11-21T03:30:59.561Z,100317.19
2022-11-21T03:33:30.802Z,100315.97
2022-11-21T03:36:01.760Z,100310.38
2022-11-21T03:38:32.690Z,100315.31
2022-11-21T03:41:27.264Z,100315.25
2022-11-21T03:44:02.911Z,100318.34
2022-11-21T03:46:36.599Z,100307.00
2022-11-21T03:49:08.621Z,100313.88
2022-11-21T03:51:39.865Z,100306.59
2022-11-21T03:54:12.811Z,100305.97
2022-11-21T03:56:43.611Z,100295.53
2022-11-21T03:59:14.610Z,100300.59
2022-11-21T04:01:45.921Z,100299.88
2022-11-21T04:04:16.758Z,100295.19
2022-11-21T04:06:47.508Z,100292.69
2022-11-21T04:09:18.391Z,100297.47
2022-11-21T04:11:49.475Z,100279.94
2022-11-21T04:14:20.400Z,100289.06
2022-11-21T04:16:51.397Z,100297.00
2022-11-21T04:19:22.390Z,100287.44
2022-11-21T04:21:53.336Z,100288.88
2022-11-21T04:24:24.324Z,100271.34
2022-11-21T04:26:57.280Z,100258.91
2022-11-21T04:29:28.062Z,100280.31
2022-11-21T04:31:58.787Z,100280.47
2022-11-21T04:34:29.835Z,100275.63
2022-11-21T04:37:02.575Z,100273.41
2022-11-21T04:39:35.342Z,100272.66
2022-11-21T04:42:06.461Z,100276.53
2022-11-21T04:44:37.954Z,100254.84
2022-11-21T04:47:08.755Z,100260.50
2022-11-21T04:49:39.519Z,100271.66
2022-11-21T04:52:10.665Z,100275.38
2022-11-21T04:54:41.699Z,100282.09
2022-11-21T04:57:12.993Z,100272.03
2022-11-21T04:59:44.072Z,100281.06
2022-11-21T05:02:15.381Z,100284.31
2022-11-21T05:04:46.632Z,100284.31
2022-11-21T05:07:17.986Z,100277.00
2022-11-21T05:09:49.015Z,100275.88
2022-11-21T05:12:37.939Z,100291.75
2022-11-21T05:15:12.046Z,100284.47
2022-11-21T05:17:43.028Z,100283.88
2022-11-21T05:20:14.876Z,100285.25
2022-11-21T05:22:46.870Z,100284.56
2022-11-21T05:25:18.135Z,100293.59
2022-11-21T05:27:48.930Z,100288.16
2022-11-21T05:30:19.893Z,100278.13
2022-11-21T05:32:50.686Z,100297.88
2022-11-21T05:35:21.754Z,100299.19
2022-11-21T05:37:58.904Z,100296.97
2022-11-21T05:40:29.738Z,100306.25
2022-11-21T05:43:18.796Z,100297.94
2022-11-21T05:45:53.800Z,100308.97
2022-11-21T05:48:24.676Z,100306.09
2022-11-21T05:50:55.690Z,100292.63
2022-11-21T05:53:26.475Z,100316.03
2022-11-21T05:55:57.210Z,100317.22
2022-11-21T05:58:28.194Z,100325.88
2022-11-21T06:01:00.456Z,100322.03
2022-11-21T06:03:34.419Z,100329.00
2022-11-21T06:06:11.074Z,100334.78
2022-11-21T06:08:47.330Z,100329.78
2022-11-21T06:11:18.777Z,100335.66
2022-11-21T06:13:49.823Z,100333.00
2022-11-21T06:16:22.115Z,100328.53
2022-11-21T06:18:58.449Z,100336.56
2022-11-21T06:21:31.143Z,100341.94
2022-11-21T06:24:02.484Z,100345.47
2022-11-21T06:26:33.551Z,100329.28
2022-11-21T06:29:04.869Z,100340.81
2022-11-21T06:31:35.579Z,100325.03
2022-11-21T06:34:06.375Z,100332.28
2022-11-21T06:36:37.606Z,100339.28
2022-11-21T06:39:08.618Z,100327.25
2022-11-21T06:41:39.913Z,100340.53
2022-11-21T06:44:11.197Z,100347.69
2022-11-21T06:46:42.731Z,100344.75
2022-11-21T06:49:15.908Z,100347.56
2022-11-21T06:51:46.741Z,100345.59
2022-11-21T06:54:18.047Z,100347.97
2022-11-21T06:56:49.066Z,100353.22
2022-11-21T06:59:20.054Z,100357.44
2022-11-21T07:01:51.371Z,100362.19
2022-11-21T07:04:22.848Z,100363.81
2022-11-21T07:06:53.724Z,100364.50
2022-11-21T07:09:33.730Z,100370.50
2022-11-21T07:12:24.458Z,100377.66
2022-11-21T07:14:55.412Z,100384.34
2022-11-21T07:17:26.537Z,100387.94
2022-11-21T07:19:57.326Z,100371.09
2022-11-21T07:22:28.651Z,100386.25
2022-11-21T07:24:59.426Z,100384.03
2022-11-21T07:27:30.241Z,100380.94
2022-11-21T07:30:01.310Z,100378.94
2022-11-21T07:32:33.631Z,100383.72
2022-11-21T07:35:04.684Z,100378.09
2022-11-21T07:37:39.174Z,100377.25
2022-11-21T07:40:10.338Z,100372.75
2022-11-21T07:42:41.197Z,100380.59
2022-11-21T07:45:12.810Z,100395.59
2022-11-21T07:47:44.461Z,100396.28
2022-11-21T07:50:16.097Z,100391.38
2022-11-21T07:52:46.885Z,100408.94
2022-11-21T07:55:17.796Z,100402.72
2022-11-21T07:57:48.748Z,100415.22
2022-11-21T08:00:20.027Z,100417.06
2022-11-21T08:02:50.966Z,100404.03
2022-11-21T08:05:22.277Z,100411.78
2022-11-21T08:07:53.657Z,100418.69
2022-11-21T08:10:25.178Z,100417.19
2022-11-21T08:12:56.039Z,100416.94
2022-11-21T08:15:26.903Z,100420.94
2022-11-21T08:17:57.794Z,100418.75
2022-11-21T08:20:28.752Z,100426.00
2022-11-21T08:22:59.682Z,100426.97
2022-11-21T08:25:30.617Z,100433.31
2022-11-21T08:28:02.041Z,100431.44
2022-11-21T08:30:33.684Z,100440.13
2022-11-21T08:33:04.172Z,100441.91
2022-11-21T08:35:35.189Z,100440.38
2022-11-21T08:38:06.672Z,100450.13
2022-11-21T08:40:38.179Z,100438.00
2022-11-21T08:43:11.387Z,100442.72
2022-11-21T08:45:42.682Z,100445.16
2022-11-21T08:48:13.870Z,100453.91
2022-11-21T08:50:44.816Z,100459.31
2022-11-21T08:53:15.700Z,100454.09
2022-11-21T08:55:46.678Z,100466.44
2022-11-21T08:58:17.462Z,100463.13
2022-11-21T09:00:48.433Z,100475.66
2022-11-21T09:03:23.570Z,100471.50
2022-11-21T09:05:59.172Z,100487.19
2022-11-21T09:08:32.203Z,100476.78
2022-11-21T09:11:07.784Z,100466.00
2022-11-21T09:13:39.319Z,100473.91
2022-11-21T09:16:31.306Z,100462.78
2022-11-21T09:19:01.445Z,100472.00
2022-11-21T09:21:32.452Z,100466.28
2022-11-21T09:24:05.031Z,100464.44
2022-11-21T09:26:35.966Z,100472.81
2022-11-21T09:29:07.148Z,100471.97
2022-11-21T09:31:38.148Z,100469.78
2022-11-21T09:34:09.295Z,100469.06
2022-11-21T09:36:40.340Z,100469.47
2022-11-21T09:39:11.288Z,100472.19
2022-11-21T09:41:54.097Z,100477.06
2022-11-21T09:45:00.287Z,100482.38
2022-11-21T09:47:35.289Z,100483.38
2022-11-21T09:50:15.304Z,100473.66
2022-11-21T09:53:01.392Z,100467.94
2022-11-21T09:55:37.895Z,100475.84
2022-11-21T09:58:31.731Z,100479.72
2022-11-21T10:01:02.894Z,100479.19
2022-11-21T10:03:47.438Z,100483.50
2022-11-21T10:06:34.271Z,100487.63
2022-11-21T10:09:05.221Z,100490.44
2022-11-21T10:12:16.820Z,100476.00
2022-11-21T10:14:57.017Z,100481.19
2022-11-21T10:17:39.925Z,100488.78
2022-11-21T10:20:31.995Z,100488.72
2022-11-21T10:23:21.111Z,100497.13
2022-11-21T10:26:32.091Z,100489.81
2022-11-21T10:29:18.612Z,100486.78
2022-11-21T10:31:49.576Z,100486.84
2022-11-21T10:34:32.204Z,100486.38
2022-11-21T10:37:17.771Z,100488.00
2022-11-21T10:39:57.496Z,100487.47
2022-11-21T10:42:35.006Z,100490.19
2022-11-21T10:45:18.320Z,100485.34
2022-11-21T10:47:55.565Z,100487.03
2022-11-21T10:50:27.825Z,100488.59
2022-11-21T10:53:28.957Z,100483.94
2022-11-21T10:56:14.901Z,100484.00
2022-11-21T10:58:50.721Z,100487.81
2022-11-21T11:01:41.732Z,100479.19
2022-11-21T11:04:28.803Z,100479.16
2022-11-21T11:07:26.265Z,100479.44
2022-11-21T11:10:27.708Z,100472.16
2022-11-21T11:16:18.787Z,100478.19
2022-11-21T11:19:01.135Z,100482.00
2022-11-21T11:21:39.381Z,100477.91
2022-11-21T11:24:13.254Z,100487.09
2022-11-21T11:26:51.755Z,100477.88
2022-11-21T11:29:33.841Z,100476.81
2022-11-21T11:32:23.458Z,100480.56
2022-11-21T11:35:07.960Z,100491.09
2022-11-21T11:37:49.061Z,100482.69
2022-11-21T11:40:35.271Z,100484.06
2022-11-21T11:43:34.209Z,100477.84
2022-11-21T11:46:35.817Z,100476.81
2022-11-21T11:49:20.451Z,100476.25
2022-11-21T11:52:01.453Z,100484.97
2022-11-21T11:54:43.907Z,100471.75
2022-11-21T11:57:15.188Z,100480.16
2022-11-21T11:59:53.255Z,100484.47
2022-11-21T12:02:47.051Z,100473.09
2022-11-21T12:05:32.302Z,100475.53
2022-11-21T12:08:40.160Z,100473.91
2022-11-21T12:11:24.784Z,100475.81
2022-11-21T12:13:58.977Z,100471.00
2022-11-21T12:16:31.350Z,100469.66
2022-11-21T12:19:16.223Z,100468.03
2022-11-21T12:21:46.910Z,100464.47
2022-11-21T12:24:22.413Z,100459.66
2022-11-21T12:27:00.722Z,100462.41
2022-11-21T12:29:56.028Z,100458.53
2022-11-21T12:32:44.980Z,100454.22
2022-11-21T12:35:37.025Z,100461.81
2022-11-21T12:38:07.128Z,100458.00
2022-11-21T12:40:44.152Z,100455.84
2022-11-21T12:43:50.823Z,100441.75
2022-11-21T12:46:34.975Z,100442.91
2022-11-21T12:49:30.266Z,100437.19
2022-11-21T12:52:28.524Z,100437.75
2022-11-21T12:55:17.288Z,100439.13
2022-11-21T12:58:12.335Z,100442.91
2022-11-21T13:01:05.307Z,100446.72
2022-11-21T13:03:48.020Z,100437.50
2022-11-21T13:06:24.510Z,100433.72
2022-11-21T13:08:57.497Z,100440.75
2022-11-21T13:11:49.246Z,100444.81
2022-11-21T13:14:56.740Z,100441.84
2022-11-21T13:17:28.127Z,100439.66
2022-11-21T13:20:19.996Z,100440.19
2022-11-21T13:22:52.681Z,100429.09
2022-11-21T13:25:41.917Z,100442.34
2022-11-21T13:28:21.748Z,100440.22
2022-11-21T13:30:56.622Z,100433.94
2022-11-21T13:33:42.814Z,100427.75
2022-11-21T13:36:36.585Z,100431.81
2022-11-21T13:39:07.565Z,100423.13
2022-11-21T13:41:56.893Z,100427.72
2022-11-21T13:44:33.800Z,100425.59
2022-11-21T13:47:11.902Z,100422.88
2022-11-21T13:50:11.464Z,100419.34
2022-11-21T13:53:09.131Z,100412.06
2022-11-21T13:56:20.527Z,100420.16
2022-11-21T13:58:57.334Z,100420.19
2022-11-21T14:01:45.875Z,100425.56
2022-11-21T14:04:38.994Z,100419.88
2022-11-21T14:07:28.441Z,100406.63
2022-11-21T14:10:01.934Z,100414.72
2022-11-21T14:12:42.848Z,100418.25
2022-11-21T14:15:35.277Z,100411.44
2022-11-21T14:18:07.321Z,100408.75
2022-11-21T14:21:02.155Z,100414.16
2022-11-21T14:23:37.153Z,100404.94
2022-11-21T14:26:21.458Z,100411.44
2022-11-21T14:28:52.272Z,100411.44
2022-11-21T14:31:23.018Z,100421.19
2022-11-21T14:33:59.847Z,100411.75
2022-11-21T14:36:32.649Z,100414.44
2022-11-21T14:39:35.568Z,100420.66
2022-11-21T14:42:01.351Z,100413.03
2022-11-21T14:44:32.460Z,100415.97
2022-11-21T14:47:26.227Z,100412.47
2022-11-21T14:50:03.764Z,100410.53
2022-11-21T14:52:37.996Z,100414.88
2022-11-21T14:55:30.213Z,100414.84
2022-11-21T14:58:03.506Z,100414.59
2022-11-21T15:03:25.841Z,100417.88
2022-11-21T15:06:08.690Z,100412.72
2022-11-21T15:09:18.463Z,100408.34
2022-11-21T15:11:42.292Z,100407.59
2022-11-21T15:14:37.800Z,100416.53
2022-11-21T15:17:12.830Z,100403.78
2022-11-21T15:19:44.933Z,100406.72
2022-11-21T15:22:30.793Z,100418.66
2022-11-21T15:25:20.019Z,100414.03
2022-11-21T15:28:10.758Z,100424.22
2022-11-21T15:30:41.790Z,100413.91
2022-11-21T15:33:21.479Z,100413.50
2022-11-21T15:35:57.607Z,100415.13
2022-11-21T15:38:48.602Z,100410.50
2022-11-21T15:41:19.502Z,100408.56
2022-11-21T15:43:56.380Z,100402.56
2022-11-21T15:46:43.837Z,100409.25
2022-11-21T15:52:12.362Z,100416.03
2022-11-21T15:54:43.108Z,100417.63
2022-11-21T15:57:16.846Z,100405.00
2022-11-21T15:59:49.517Z,100416.59
2022-11-21T16:02:20.643Z,100413.94
2022-11-21T16:04:51.704Z,100414.72
2022-11-21T16:07:22.552Z,100413.69
2022-11-21T16:09:53.769Z,100402.81
2022-11-21T16:12:24.587Z,100397.88
2022-11-21T16:14:55.470Z,100398.16
2022-11-21T16:17:26.577Z,100394.41
2022-11-21T16:19:58.415Z,100378.25
2022-11-21T16:22:29.700Z,100384.72
2022-11-21T16:25:01.077Z,100387.38
2022-11-21T16:27:36.428Z,100385.22
2022-11-21T16:30:08.305Z,100385.81
2022-11-21T16:32:39.209Z,100380.72
2022-11-21T16:35:10.658Z,100381.03
2022-11-21T16:37:41.838Z,100376.75
2022-11-21T16:40:13.104Z,100383.22
2022-11-21T16:42:43.767Z,100381.34
2022-11-21T16:45:14.599Z,100394.31
2022-11-21T16:47:48.717Z,100387.84
2022-11-21T16:50:20.256Z,100392.47
2022-11-21T16:52:51.173Z,100394.09
2022-11-21T16:55:21.923Z,100393.31
2022-11-21T16:57:52.789Z,100392.19
2022-11-21T17:00:25.807Z,100385.19
2022-11-21T17:02:57.313Z,100387.91
2022-11-21T17:05:28.557Z,100387.66
2022-11-21T17:07:59.583Z,100389.53
2022-11-21T17:10:34.021Z,100392.22
2022-11-21T17:13:05.517Z,100398.97
2022-11-21T17:15:36.376Z,100406.84
2022-11-21T17:18:07.126Z,100408.75
2022-11-21T17:20:38.438Z,100404.41
2022-11-21T17:23:09.486Z,100405.47
2022-11-21T17:25:40.221Z,100404.41
2022-11-21T17:28:11.128Z,100406.56
2022-11-21T17:30:45.557Z,100401.69
2022-11-21T17:33:16.273Z,100405.75
2022-11-21T17:35:47.141Z,100404.13
2022-11-21T17:38:18.100Z,100415.53
2022-11-21T17:40:49.132Z,100412.00
2022-11-21T17:43:20.175Z,100409.84
2022-11-21T17:45:51.941Z,100401.75
2022-11-21T17:48:22.882Z,100408.53
2022-11-21T17:51:06.137Z,100403.91
2022-11-21T17:53:38.809Z,100403.38
2022-11-21T17:56:11.614Z,100394.44
2022-11-21T17:58:42.905Z,100403.09
2022-11-21T18:01:20.453Z,100407.72
2022-11-21T18:04:02.360Z,100401.19
2022-11-21T18:06:38.482Z,100398.78
2022-11-21T18:09:11.800Z,100399.56
2022-11-21T18:11:43.249Z,100402.19
2022-11-21T18:14:15.539Z,100371.66
2022-11-21T18:16:52.842Z,100394.03
2022-11-21T18:19:24.517Z,100392.94
2022-11-21T18:21:55.779Z,100398.84
2022-11-21T18:24:26.895Z,100402.91
2022-11-21T18:26:58.157Z,100406.03
2022-11-21T18:29:36.322Z,100380.75
2022-11-21T18:32:08.811Z,100386.25
2022-11-21T18:34:39.045Z,100380.34
2022-11-21T18:37:10.090Z,100373.78
2022-11-21T18:39:40.821Z,100374.19
2022-11-21T18:42:11.566Z,100387.25
2022-11-21T18:44:42.885Z,100377.41
2022-11-21T18:47:20.568Z,100385.41
2022-11-21T18:49:52.014Z,100379.50
2022-11-21T18:52:22.872Z,100383.22
2022-11-21T18:54:53.718Z,100395.31
2022-11-21T18:57:24.503Z,100385.59
2022-11-21T18:59:55.414Z,100376.59
2022-11-21T19:02:26.466Z,100356.59
2022-11-21T19:04:57.271Z,100375.97
2022-11-21T19:07:28.341Z,100361.94
2022-11-21T19:10:20.702Z,100356.97
2022-11-21T19:12:50.063Z,100356.22
2022-11-21T19:15:20.786Z,100356.06
2022-11-21T19:17:51.730Z,100365.25
2022-11-21T19:20:22.736Z,100356.41
2022-11-21T19:22:54.952Z,100358.69
2022-11-21T19:25:25.333Z,100364.47
2022-11-21T19:27:56.882Z,100357.00
2022-11-21T19:30:28.545Z,100372.72
2022-11-21T19:33:00.778Z,100374.41
2022-11-21T19:35:31.475Z,100371.28
2022-11-21T19:38:02.746Z,100363.19
2022-11-21T19:40:53.469Z,100356.72
2022-11-21T19:43:24.704Z,100351.66
2022-11-21T19:45:58.190Z,100343.59
2022-11-21T19:48:29.389Z,100336.81
2022-11-21T19:51:00.975Z,100348.75
2022-11-21T19:53:36.114Z,100336.59
2022-11-21T19:56:18.031Z,100333.34
2022-11-21T19:58:50.046Z,100334.41
2022-11-21T20:01:24.644Z,100343.09
2022-11-21T20:03:57.777Z,100348.63
2022-11-21T20:06:38.823Z,100340.44
2022-11-21T20:09:12.537Z,100340.53
2022-11-21T20:11:45.822Z,100346.38
2022-11-21T20:14:21.876Z,100361.31
2022-11-21T20:16:55.163Z,100361.44
2022-11-21T20:19:28.246Z,100353.53
2022-11-21T20:21:59.181Z,100346.63
2022-11-21T20:24:30.567Z,100330.47
2022-11-21T20:27:01.441Z,100334.50
2022-11-21T20:29:32.321Z,100327.56
2022-11-21T20:32:03.918Z,100324.31
2022-11-21T20:34:36.274Z,100305.28
2022-11-21T20:37:07.200Z,100299.44
2022-11-21T20:39:37.954Z,100308.09
2022-11-21T20:42:09.712Z,100307.66
2022-11-21T20:47:30.844Z,100315.72
2022-11-21T20:50:01.544Z,100304.00
2022-11-21T20:55:24.116Z,100303.06
2022-11-21T20:57:55.487Z,100307.91
2022-11-21T21:00:26.476Z,100297.97
2022-11-21T21:02:57.499Z,100292.63
2022-11-21T21:05:28.388Z,100292.06
2022-11-21T21:07:59.170Z,100288.47
2022-11-21T21:10:45.972Z,100282.19
2022-11-21T21:13:21.109Z,100274.34
2022-11-21T21:15:52.064Z,100265.84
2022-11-21T21:18:23.440Z,100264.75
2022-11-21T21:21:15.336Z,100252.81
2022-11-21T21:23:55.747Z,100263.38
2022-11-21T21:26:37.299Z,100247.41
2022-11-21T21:29:14.541Z,100245.31
2022-11-21T21:31:50.563Z,100234.13
2022-11-21T21:34:24.027Z,100219.78
2022-11-21T21:36:54.834Z,100217.06
2022-11-21T21:39:27.484Z,100212.63
2022-11-21T21:41:58.892Z,100224.28
2022-11-21T21:44:33.223Z,100217.19
2022-11-21T21:47:04.784Z,100208.88
2022-11-21T21:49:35.506Z,100202.66
2022-11-21T21:52:06.573Z,100203.94
2022-11-21T21:54:37.284Z,100201.16
2022-11-21T21:57:08.148Z,100197.75
2022-11-21T21:59:39.108Z,100189.00
2022-11-21T22:02:12.339Z,100191.53
2022-11-21T22:04:45.917Z,100185.28
2022-11-21T22:07:18.815Z,100183.69
2022-11-21T22:09:49.955Z,100175.75
2022-11-21T22:12:20.813Z,100185.16
2022-11-21T22:14:51.650Z,100177.41
2022-11-21T22:17:22.449Z,100171.81
2022-11-21T22:19:53.456Z,100170.56
2022-11-21T22:22:24.548Z,100165.16
2022-11-21T22:24:55.512Z,100157.53
2022-11-21T22:27:26.555Z,100160.47
2022-11-21T22:29:57.262Z,100157.47
2022-11-21T22:32:28.198Z,100149.59
2022-11-21T22:35:02.541Z,100154.44
2022-11-21T22:37:33.302Z,100139.44
2022-11-21T22:40:04.033Z,100138.63
2022-11-21T22:42:35.001Z,100127.19
2022-11-21T22:45:06.106Z,100119.03
2022-11-21T22:47:37.009Z,100121.75
2022-11-21T22:50:09.385Z,100113.13
2022-11-21T22:52:40.228Z,100108.84
2022-11-21T22:55:11.433Z,100093.50
2022-11-21T22:57:41.843Z,100104.75
2022-11-21T23:00:13.416Z,100091.69
2022-11-21T23:02:43.552Z,100106.72
2022-11-21T23:05:14.855Z,100092.69
2022-11-21T23:07:46.548Z,100084.78
2022-11-21T23:10:17.699Z,100091.91
2022-11-21T23:12:48.622Z,100088.22
2022-11-21T23:15:20.097Z,100055.00
2022-11-21T23:17:54.415Z,100057.75
2022-11-21T23:20:25.158Z,100060.09
2022-11-21T23:22:58.934Z,100051.97
2022-11-21T23:25:30.331Z,100061.00
2022-11-21T23:28:01.243Z,100059.97
2022-11-21T23:30:32.197Z,100047.31
2022-11-21T23:33:03.573Z,100049.88
2022-11-21T23:35:34.349Z,100031.09
2022-11-21T23:38:05.338Z,100029.75
2022-11-21T23:40:36.195Z,100020.13
2022-11-21T23:43:07.456Z,100021.81
2022-11-21T23:45:38.430Z,100000.31
2022-11-21T23:48:09.286Z,100014.19
2022-11-21T23:50:40.194Z,100011.06
2022-11-21T23:53:11.461Z,100003.38
2022-11-21T23:55:42.662Z,99991.94
2022-11-21T23:58:14.241Z,99972.44
